Time,TemperatureF,DewpointF,PressureIn,WindDirection,WindDirectionDegrees,WindSpeedMPH,WindSpeedGustMPH,Humidity,HourlyPrecipIn,Conditions,Clouds,dailyrainin,SoftwareType,DateUTC
2013-09-14 00:01:00,50.9,40.0,29.62,WNW,298,0.0,0.0,66,0.00,,---,0.08,VWS V14.01,2013-09-14 04:01:00,
2013-09-14 00:06:00,50.9,40.0,29.62,WNW,299,0.0,0.0,66,0.00,,---,0.00,VWS V14.01,2013-09-14 04:06:00,
2013-09-14 00:11:00,50.9,40.0,29.62,WNW,299,0.0,0.0,66,0.00,,---,0.00,VWS V14.01,2013-09-14 04:11:00,
2013-09-14 00:16:00,50.7,39.8,29.62,WNW,299,0.0,0.0,66,0.00,,---,0.00,VWS V14.01,2013-09-14 04:16:00,
2013-09-14 00:21:00,50.5,39.2,29.62,WNW,299,0.0,0.0,65,0.00,,---,0.00,VWS V14.01,2013-09-14 04:21:00,
2013-09-14 00:26:00,50.5,39.2,29.62,WNW,299,0.0,0.0,65,0.00,,---,0.00,VWS V14.01,2013-09-14 04:26:00,
2013-09-14 00:31:00,50.5,39.2,29.62,WNW,299,0.0,0.0,65,0.00,,---,0.00,VWS V14.01,2013-09-14 04:31:00,
2013-09-14 00:36:00,50.5,40.0,29.62,WNW,298,0.0,0.0,67,0.00,,---,0.00,VWS V14.01,2013-09-14 04:36:00,
2013-09-14 00:41:00,50.5,40.0,29.62,WNW,299,0.0,0.0,67,0.00,,---,0.00,VWS V14.01,2013-09-14 04:41:00,
2013-09-14 00:46:00,50.5,40.0,29.62,WNW,299,0.0,0.0,67,0.00,,---,0.00,VWS V14.01,2013-09-14 04:46:00,
2013-09-14 00:51:00,50.5,40.0,29.62,WNW,299,0.0,0.0,67,0.00,,---,0.00,VWS V14.01,2013-09-14 04:51:00,
2013-09-14 00:56:00,50.5,40.0,29.62,WNW,299,0.0,0.0,67,0.00,,---,0.00,VWS V14.01,2013-09-14 04:56:00,
2013-09-14 01:01:00,50.5,40.0,29.62,WNW,299,0.0,0.0,67,0.00,,---,0.00,VWS V14.01,2013-09-14 05:01:00,
2013-09-14 01:06:00,50.5,40.0,29.62,WNW,298,0.0,0.0,67,0.04,,---,0.04,VWS V14.01,2013-09-14 05:06:00,
2013-09-14 01:11:00,50.5,40.0,29.62,WNW,299,0.0,0.0,67,0.04,,---,0.04,VWS V14.01,2013-09-14 05:11:00,
2013-09-14 01:16:00,50.5,40.0,29.62,WNW,298,0.0,0.0,67,0.04,,---,0.04,VWS V14.01,2013-09-14 05:16:00,
2013-09-14 01:21:00,50.5,40.0,29.62,WNW,299,0.0,0.0,67,0.04,,---,0.04,VWS V14.01,2013-09-14 05:21:00,
2013-09-14 01:26:00,50.5,40.0,29.62,WNW,299,0.0,0.0,67,0.04,,---,0.04,VWS V14.01,2013-09-14 05:26:00,
2013-09-14 01:31:00,50.4,39.8,29.62,WNW,299,0.0,0.0,67,0.04,,---,0.04,VWS V14.01,2013-09-14 05:31:00,
2013-09-14 01:36:00,50.4,39.8,29.62,WNW,299,0.0,0.0,67,0.04,,---,0.04,VWS V14.01,2013-09-14 05:36:00,
2013-09-14 01:41:00,50.4,39.8,29.62,WNW,299,0.0,0.0,67,0.04,,---,0.04,VWS V14.01,2013-09-14 05:41:00,
2013-09-14 01:46:00,50.4,39.8,29.62,WNW,298,0.0,0.0,67,0.04,,---,0.04,VWS V14.01,2013-09-14 05:46:00,
2013-09-14 01:51:00,50.4,39.8,29.62,WNW,299,0.0,0.0,67,0.04,,---,0.04,VWS V14.01,2013-09-14 05:51:00,
2013-09-14 01:56:00,50.4,40.2,29.62,WNW,299,0.0,0.0,68,0.04,,---,0.04,VWS V14.01,2013-09-14 05:56:00,
2013-09-14 02:01:00,50.4,40.2,29.62,WNW,299,0.0,0.0,68,0.04,,---,0.04,VWS V14.01,2013-09-14 06:01:00,
2013-09-14 02:06:00,50.4,40.2,29.62,WNW,298,0.0,0.0,68,0.00,,---,0.04,VWS V14.01,2013-09-14 06:06:00,
2013-09-14 02:11:00,50.4,40.2,29.62,WNW,298,0.0,0.0,68,0.00,,---,0.04,VWS V14.01,2013-09-14 06:11:00,
2013-09-14 02:16:00,50.4,40.2,29.62,WNW,299,0.0,0.0,68,0.00,,---,0.04,VWS V14.01,2013-09-14 06:16:00,
2013-09-14 02:21:00,50.4,40.2,29.62,North,8,0.0,0.0,68,0.00,,---,0.04,VWS V14.01,2013-09-14 06:21:00,
2013-09-14 02:26:00,50.4,40.2,29.62,North,8,0.0,0.0,68,0.00,,---,0.04,VWS V14.01,2013-09-14 06:26:00,
2013-09-14 02:31:00,50.4,40.2,29.62,North,8,0.0,0.0,68,0.00,,---,0.04,VWS V14.01,2013-09-14 06:31:00,
2013-09-14 02:36:00,50.4,40.2,29.62,North,8,0.0,0.0,68,0.00,,---,0.04,VWS V14.01,2013-09-14 06:36:00,
2013-09-14 02:41:00,50.4,40.2,29.62,North,8,0.0,0.0,68,0.00,,---,0.04,VWS V14.01,2013-09-14 06:41:00,
2013-09-14 02:46:00,50.4,40.2,29.62,North,8,0.0,0.0,68,0.00,,---,0.04,VWS V14.01,2013-09-14 06:46:00,
2013-09-14 02:51:00,50.4,40.2,29.62,North,8,0.0,0.0,68,0.00,,---,0.04,VWS V14.01,2013-09-14 06:51:00,
2013-09-14 02:56:00,50.4,40.2,29.62,North,8,0.0,0.0,68,0.00,,---,0.04,VWS V14.01,2013-09-14 06:56:00,
2013-09-14 03:01:00,50.2,40.4,29.62,North,8,0.0,0.0,69,0.00,,---,0.04,VWS V14.01,2013-09-14 07:01:00,
2013-09-14 03:06:00,50.2,40.4,29.62,North,8,0.0,0.0,69,0.00,,---,0.04,VWS V14.01,2013-09-14 07:06:00,
2013-09-14 03:11:00,50.2,40.4,29.62,North,8,0.0,0.0,69,0.00,,---,0.04,VWS V14.01,2013-09-14 07:11:00,
2013-09-14 03:16:00,50.2,40.4,29.62,North,8,0.0,0.0,69,0.00,,---,0.04,VWS V14.01,2013-09-14 07:16:00,
2013-09-14 03:21:00,50.2,40.4,29.62,North,8,0.0,0.0,69,0.00,,---,0.04,VWS V14.01,2013-09-14 07:21:00,
2013-09-14 03:26:00,50.2,40.4,29.62,North,8,0.0,0.0,69,0.00,,---,0.04,VWS V14.01,2013-09-14 07:26:00,
2013-09-14 03:31:00,49.8,40.1,29.62,North,8,0.0,0.0,69,0.00,,---,0.04,VWS V14.01,2013-09-14 07:31:00,
2013-09-14 03:36:00,49.8,40.1,29.62,North,8,0.0,0.0,69,0.00,,---,0.04,VWS V14.01,2013-09-14 07:36:00,
2013-09-14 03:41:00,49.8,40.1,29.62,North,8,0.0,0.0,69,0.00,,---,0.04,VWS V14.01,2013-09-14 07:41:00,
2013-09-14 03:46:00,49.8,40.1,29.62,North,8,0.0,0.0,69,0.00,,---,0.04,VWS V14.01,2013-09-14 07:46:00,
2013-09-14 03:51:00,49.8,40.1,29.62,SSW,200,0.0,0.0,69,0.00,,---,0.04,VWS V14.01,2013-09-14 07:51:00,
2013-09-14 03:56:00,49.6,40.3,29.62,SSW,200,0.0,0.0,70,0.00,,---,0.04,VWS V14.01,2013-09-14 07:56:00,
2013-09-14 04:01:00,49.6,40.3,29.62,SSW,200,0.0,0.0,70,0.00,,---,0.04,VWS V14.01,2013-09-14 08:01:00,
2013-09-14 04:06:00,49.6,40.3,29.62,SSW,200,0.0,0.0,70,0.00,,---,0.04,VWS V14.01,2013-09-14 08:06:00,
2013-09-14 04:11:00,49.6,40.3,29.62,SSW,200,0.0,0.0,70,0.00,,---,0.04,VWS V14.01,2013-09-14 08:11:00,
2013-09-14 04:16:00,49.6,40.3,29.62,SSW,200,0.0,0.0,70,0.00,,---,0.04,VWS V14.01,2013-09-14 08:16:00,
2013-09-14 04:21:00,49.6,40.3,29.62,SSW,200,0.0,0.0,70,0.00,,---,0.04,VWS V14.01,2013-09-14 08:21:00,
2013-09-14 04:26:00,49.5,40.1,29.62,SSW,200,0.0,0.0,70,0.00,,---,0.04,VWS V14.01,2013-09-14 08:26:00,
2013-09-14 04:31:00,49.5,40.1,29.62,SSW,200,0.0,0.0,70,0.00,,---,0.04,VWS V14.01,2013-09-14 08:31:00,
2013-09-14 04:36:00,49.5,40.5,29.65,SSW,200,0.0,0.0,71,0.00,,---,0.04,VWS V14.01,2013-09-14 08:36:00,
2013-09-14 04:41:00,49.5,40.5,29.65,SSW,200,0.0,0.0,71,0.00,,---,0.04,VWS V14.01,2013-09-14 08:41:00,
2013-09-14 04:46:00,49.5,40.5,29.65,SSW,200,0.0,0.0,71,0.00,,---,0.04,VWS V14.01,2013-09-14 08:46:00,
2013-09-14 04:51:00,49.5,40.5,29.65,SSW,200,0.0,0.0,71,0.00,,---,0.04,VWS V14.01,2013-09-14 08:51:00,
2013-09-14 04:56:00,49.3,39.9,29.65,SSW,200,0.0,0.0,70,0.00,,---,0.04,VWS V14.01,2013-09-14 08:56:00,
2013-09-14 05:01:00,49.3,40.3,29.65,SSW,200,0.0,0.0,71,0.00,,---,0.04,VWS V14.01,2013-09-14 09:01:00,
2013-09-14 05:06:00,49.3,40.3,29.65,SSW,200,0.0,0.0,71,0.00,,---,0.04,VWS V14.01,2013-09-14 09:06:00,
2013-09-14 05:11:00,49.3,40.3,29.65,SSW,200,0.0,0.0,71,0.00,,---,0.04,VWS V14.01,2013-09-14 09:11:00,
2013-09-14 05:16:00,49.3,40.3,29.65,SSW,200,0.0,0.0,71,0.00,,---,0.04,VWS V14.01,2013-09-14 09:16:00,
2013-09-14 05:21:00,49.3,40.3,29.65,SSW,200,0.0,0.0,71,0.00,,---,0.04,VWS V14.01,2013-09-14 09:21:00,
2013-09-14 05:26:00,49.3,40.3,29.65,SSW,200,0.0,0.0,71,0.00,,---,0.04,VWS V14.01,2013-09-14 09:26:00,
2013-09-14 05:31:00,49.1,40.1,29.65,SSW,200,0.0,0.0,71,0.00,,---,0.04,VWS V14.01,2013-09-14 09:31:00,
2013-09-14 05:36:00,49.1,40.1,29.65,SSW,200,0.0,0.0,71,0.00,,---,0.04,VWS V14.01,2013-09-14 09:36:00,
2013-09-14 05:42:00,49.1,40.1,29.65,SSW,200,0.0,0.0,71,0.00,,---,0.04,VWS V14.01,2013-09-14 09:42:00,
2013-09-14 05:47:00,49.1,40.1,29.65,SSW,200,0.0,0.0,71,0.00,,---,0.04,VWS V14.01,2013-09-14 09:47:00,
2013-09-14 05:52:00,48.9,39.9,29.65,SSW,200,0.0,0.0,71,0.00,,---,0.04,VWS V14.01,2013-09-14 09:52:00,
2013-09-14 05:57:00,48.7,39.8,29.65,SSW,200,0.0,0.0,71,0.00,,---,0.04,VWS V14.01,2013-09-14 09:57:00,
2013-09-14 06:02:00,48.9,40.3,29.65,West,274,0.0,0.0,72,0.00,,---,0.04,VWS V14.01,2013-09-14 10:02:00,
2013-09-14 06:07:00,48.9,40.3,29.65,West,274,0.0,0.0,72,0.00,,---,0.04,VWS V14.01,2013-09-14 10:07:00,
2013-09-14 06:12:00,48.9,40.3,29.65,West,274,0.0,0.0,72,0.00,,---,0.04,VWS V14.01,2013-09-14 10:12:00,
2013-09-14 06:17:00,48.9,40.3,29.65,West,274,0.0,0.0,72,0.00,,---,0.04,VWS V14.01,2013-09-14 10:17:00,
2013-09-14 06:22:00,48.9,40.3,29.65,West,274,0.0,0.0,72,0.00,,---,0.04,VWS V14.01,2013-09-14 10:22:00,
2013-09-14 06:27:00,48.9,40.3,29.65,West,274,0.0,0.0,72,0.00,,---,0.04,VWS V14.01,2013-09-14 10:27:00,
2013-09-14 06:32:00,48.9,40.3,29.65,West,274,0.0,0.0,72,0.00,,---,0.04,VWS V14.01,2013-09-14 10:32:00,
2013-09-14 06:37:00,48.9,40.3,29.65,West,274,0.0,0.0,72,0.00,,---,0.04,VWS V14.01,2013-09-14 10:37:00,
2013-09-14 06:42:00,48.9,40.3,29.65,West,274,0.0,0.0,72,0.00,,---,0.04,VWS V14.01,2013-09-14 10:42:00,
2013-09-14 06:47:00,49.1,40.5,29.65,SW,218,0.0,0.0,72,0.00,,---,0.04,VWS V14.01,2013-09-14 10:47:00,
2013-09-14 06:52:00,49.1,40.5,29.65,SW,218,0.0,0.0,72,0.00,,---,0.04,VWS V14.01,2013-09-14 10:52:00,
2013-09-14 06:57:00,49.1,40.5,29.65,SW,218,0.0,0.0,72,0.00,,---,0.04,VWS V14.01,2013-09-14 10:57:00,
2013-09-14 07:02:00,49.1,40.5,29.65,SW,218,0.0,0.0,72,0.00,,---,0.04,VWS V14.01,2013-09-14 11:02:00,
2013-09-14 07:07:00,49.1,40.5,29.65,SW,218,0.0,0.0,72,0.00,,---,0.04,VWS V14.01,2013-09-14 11:07:00,
2013-09-14 07:12:00,49.3,40.7,29.65,SW,218,0.0,0.0,72,0.00,,---,0.04,VWS V14.01,2013-09-14 11:12:00,
2013-09-14 07:17:00,49.3,40.7,29.65,SW,218,0.0,0.0,72,0.00,,---,0.04,VWS V14.01,2013-09-14 11:17:00,
2013-09-14 07:22:00,49.3,40.7,29.65,SW,218,0.0,0.0,72,0.00,,---,0.04,VWS V14.01,2013-09-14 11:22:00,
2013-09-14 07:27:00,49.5,40.8,29.65,SW,218,0.0,0.0,72,0.00,,---,0.04,VWS V14.01,2013-09-14 11:27:00,
2013-09-14 07:32:00,49.5,40.8,29.65,SW,218,0.0,0.0,72,0.00,,---,0.04,VWS V14.01,2013-09-14 11:32:00,
2013-09-14 07:37:00,49.5,40.8,29.68,SW,218,0.0,0.0,72,0.00,,---,0.04,VWS V14.01,2013-09-14 11:37:00,
2013-09-14 07:42:00,49.5,40.8,29.68,SW,217,0.0,0.0,72,0.00,,---,0.04,VWS V14.01,2013-09-14 11:42:00,
2013-09-14 07:47:00,49.5,40.8,29.68,SW,218,0.0,0.0,72,0.00,,---,0.04,VWS V14.01,2013-09-14 11:47:00,
2013-09-14 07:52:00,49.5,40.8,29.68,SW,218,0.0,0.0,72,0.00,,---,0.04,VWS V14.01,2013-09-14 11:52:00,
2013-09-14 07:57:00,49.5,40.8,29.68,SW,218,0.0,0.0,72,0.00,,---,0.04,VWS V14.01,2013-09-14 11:57:00,
2013-09-14 08:02:00,49.5,40.8,29.68,SW,218,0.0,0.0,72,0.00,,---,0.04,VWS V14.01,2013-09-14 12:02:00,
2013-09-14 08:07:00,49.5,40.8,29.68,SW,217,0.0,0.0,72,0.00,,---,0.04,VWS V14.01,2013-09-14 12:07:00,
2013-09-14 08:12:00,49.5,40.8,29.68,SW,218,0.0,0.0,72,0.00,,---,0.04,VWS V14.01,2013-09-14 12:12:00,
2013-09-14 08:17:00,49.5,40.8,29.68,SW,218,0.0,0.0,72,0.00,,---,0.04,VWS V14.01,2013-09-14 12:17:00,
2013-09-14 08:22:00,49.6,41.0,29.68,SW,218,0.0,0.0,72,0.00,,---,0.04,VWS V14.01,2013-09-14 12:22:00,
2013-09-14 08:27:00,49.6,41.0,29.68,SW,218,0.0,0.0,72,0.00,,---,0.04,VWS V14.01,2013-09-14 12:27:00,
2013-09-14 08:32:00,49.6,41.0,29.68,SW,218,0.0,0.0,72,0.00,,---,0.04,VWS V14.01,2013-09-14 12:32:00,
2013-09-14 08:37:00,49.6,41.0,29.68,SW,218,0.0,0.0,72,0.00,,---,0.04,VWS V14.01,2013-09-14 12:37:00,
2013-09-14 08:42:00,49.6,41.0,29.68,SW,218,0.0,0.0,72,0.00,,---,0.04,VWS V14.01,2013-09-14 12:42:00,
2013-09-14 08:47:00,49.6,41.3,29.68,SW,218,0.0,0.0,73,0.00,,---,0.04,VWS V14.01,2013-09-14 12:47:00,
2013-09-14 08:52:00,49.8,41.5,29.68,SW,218,0.0,0.0,73,0.00,,---,0.04,VWS V14.01,2013-09-14 12:52:00,
2013-09-14 08:57:00,49.8,41.5,29.68,SW,218,0.0,0.0,73,0.00,,---,0.04,VWS V14.01,2013-09-14 12:57:00,
2013-09-14 09:02:00,49.8,41.5,29.68,SW,217,0.0,0.0,73,0.00,,---,0.04,VWS V14.01,2013-09-14 13:02:00,
2013-09-14 09:07:00,49.8,41.5,29.68,SW,218,0.0,0.0,73,0.00,,---,0.04,VWS V14.01,2013-09-14 13:07:00,
2013-09-14 09:12:00,50.0,41.3,29.68,SW,217,0.0,0.0,72,0.00,,---,0.04,VWS V14.01,2013-09-14 13:12:00,
2013-09-14 09:17:00,50.2,41.5,29.68,SW,217,0.0,0.0,72,0.00,,---,0.04,VWS V14.01,2013-09-14 13:17:00,
2013-09-14 09:22:00,50.2,41.5,29.71,SW,217,0.0,0.0,72,0.00,,---,0.04,VWS V14.01,2013-09-14 13:22:00,
2013-09-14 09:27:00,50.4,41.7,29.71,WNW,298,0.0,0.0,72,0.00,,---,0.04,VWS V14.01,2013-09-14 13:27:00,
2013-09-14 09:32:00,50.5,41.9,29.71,NE,45,0.0,0.0,72,0.00,,---,0.04,VWS V14.01,2013-09-14 13:32:00,
2013-09-14 09:37:00,50.7,42.0,29.71,SSE,168,0.0,0.0,72,0.00,,---,0.04,VWS V14.01,2013-09-14 13:37:00,
2013-09-14 09:42:00,50.9,42.2,29.71,WNW,293,0.0,0.0,72,0.00,,---,0.04,VWS V14.01,2013-09-14 13:42:00,
2013-09-14 09:47:00,51.1,42.4,29.71,WNW,301,3.6,3.6,72,0.00,,---,0.04,VWS V14.01,2013-09-14 13:47:00,
2013-09-14 09:52:00,51.1,42.4,29.71,WNW,293,0.0,0.0,72,0.00,,---,0.04,VWS V14.01,2013-09-14 13:52:00,
2013-09-14 09:57:00,51.3,42.5,29.71,South,178,2.7,2.7,72,0.00,,---,0.04,VWS V14.01,2013-09-14 13:57:00,
2013-09-14 10:02:00,51.4,42.7,29.71,NW,314,0.0,2.2,72,0.00,,---,0.04,VWS V14.01,2013-09-14 14:02:00,
2013-09-14 10:07:00,51.6,42.9,29.71,West,270,0.0,0.0,72,0.00,,---,0.04,VWS V14.01,2013-09-14 14:07:00,
2013-09-14 10:12:00,51.6,42.9,29.71,West,272,0.0,0.0,72,0.00,,---,0.04,VWS V14.01,2013-09-14 14:12:00,
2013-09-14 10:17:00,51.6,42.9,29.71,West,272,0.0,0.0,72,0.00,,---,0.04,VWS V14.01,2013-09-14 14:17:00,
2013-09-14 10:22:00,51.6,42.9,29.71,WNW,295,2.7,2.7,72,0.00,,---,0.04,VWS V14.01,2013-09-14 14:22:00,
2013-09-14 10:27:00,52.7,43.9,29.71,WNW,295,0.0,0.0,72,0.00,,---,0.04,VWS V14.01,2013-09-14 14:27:00,
2013-09-14 10:32:00,52.9,44.1,29.71,WNW,291,0.0,0.0,72,0.00,,---,0.04,VWS V14.01,2013-09-14 14:32:00,
2013-09-14 10:37:00,53.1,43.9,29.71,West,281,0.0,0.0,71,0.00,,---,0.04,VWS V14.01,2013-09-14 14:37:00,
2013-09-14 10:42:00,53.1,43.5,29.71,SSE,167,0.0,0.0,70,0.00,,---,0.04,VWS V14.01,2013-09-14 14:42:00,
2013-09-14 10:47:00,53.2,43.3,29.71,ESE,108,0.0,2.2,69,0.00,,---,0.04,VWS V14.01,2013-09-14 14:47:00,
2013-09-14 10:52:00,53.4,43.9,29.71,ESE,108,0.0,0.0,70,0.00,,---,0.04,VWS V14.01,2013-09-14 14:52:00,
2013-09-14 10:57:00,53.6,43.7,29.71,NE,51,0.0,0.0,69,0.00,,---,0.04,VWS V14.01,2013-09-14 14:57:00,
2013-09-14 11:02:00,53.8,43.5,29.71,East,89,0.0,0.0,68,0.00,,---,0.04,VWS V14.01,2013-09-14 15:02:00,
2013-09-14 11:07:00,54.0,43.3,29.71,East,89,0.0,0.0,67,0.00,,---,0.04,VWS V14.01,2013-09-14 15:07:00,
2013-09-14 11:12:00,54.1,43.4,29.71,SW,216,0.0,0.0,67,0.00,,---,0.04,VWS V14.01,2013-09-14 15:12:00,
2013-09-14 11:17:00,54.3,43.2,29.71,West,272,0.0,0.0,66,0.00,,---,0.04,VWS V14.01,2013-09-14 15:17:00,
2013-09-14 11:22:00,54.5,42.6,29.71,WNW,303,4.0,4.0,64,0.00,,---,0.04,VWS V14.01,2013-09-14 15:22:00,
2013-09-14 11:27:00,54.5,42.2,29.71,East,82,0.0,0.0,63,0.00,,---,0.04,VWS V14.01,2013-09-14 15:27:00,
2013-09-14 11:32:00,54.7,41.5,29.71,South,176,0.0,0.0,61,0.00,,---,0.04,VWS V14.01,2013-09-14 15:32:00,
2013-09-14 11:37:00,54.9,41.2,29.71,East,86,0.0,0.0,60,0.00,,---,0.04,VWS V14.01,2013-09-14 15:37:00,
2013-09-14 11:42:00,55.2,40.7,29.71,WNW,292,0.0,0.0,58,0.00,,---,0.04,VWS V14.01,2013-09-14 15:42:00,
2013-09-14 11:47:00,55.4,39.0,29.71,WNW,295,0.0,4.0,54,0.00,,---,0.04,VWS V14.01,2013-09-14 15:47:00,
2013-09-14 11:52:00,55.4,38.1,29.71,WNW,284,0.0,0.0,52,0.00,,---,0.04,VWS V14.01,2013-09-14 15:52:00,
2013-09-14 11:57:00,55.6,36.7,29.71,WNW,283,0.0,0.0,49,0.00,,---,0.04,VWS V14.01,2013-09-14 15:57:00,
2013-09-14 12:03:00,55.6,36.2,29.71,WNW,286,0.0,0.0,48,0.00,,---,0.04,VWS V14.01,2013-09-14 16:03:00,
2013-09-14 12:08:00,55.6,35.7,29.71,WNW,286,0.0,0.0,47,0.00,,---,0.04,VWS V14.01,2013-09-14 16:08:00,
2013-09-14 12:13:00,55.8,35.3,29.71,WNW,286,0.0,0.0,46,0.00,,---,0.04,VWS V14.01,2013-09-14 16:13:00,
2013-09-14 12:18:00,55.8,35.3,29.71,South,176,0.0,0.0,46,0.00,,---,0.04,VWS V14.01,2013-09-14 16:18:00,
2013-09-14 12:23:00,55.8,35.3,29.71,WNW,297,0.0,3.6,46,0.00,,---,0.04,VWS V14.01,2013-09-14 16:23:00,
2013-09-14 12:28:00,55.9,33.8,29.71,North,8,0.0,0.0,43,0.00,,---,0.04,VWS V14.01,2013-09-14 16:28:00,
2013-09-14 12:33:00,55.9,33.2,29.68,North,8,0.0,0.0,42,0.00,,---,0.04,VWS V14.01,2013-09-14 16:33:00,
2013-09-14 12:38:00,56.1,32.8,29.68,North,8,0.0,0.0,41,0.00,,---,0.04,VWS V14.01,2013-09-14 16:38:00,
2013-09-14 12:43:00,56.3,32.3,29.68,NNW,338,0.0,2.2,40,0.00,,---,0.04,VWS V14.01,2013-09-14 16:43:00,
2013-09-14 12:48:00,56.3,31.7,29.71,SSE,154,0.0,0.0,39,0.00,,---,0.04,VWS V14.01,2013-09-14 16:48:00,
2013-09-14 12:53:00,56.3,31.0,29.71,SE,145,0.0,0.0,38,0.00,,---,0.04,VWS V14.01,2013-09-14 16:53:00,
2013-09-14 12:58:00,56.3,31.0,29.71,South,172,0.0,0.0,38,0.00,,---,0.04,VWS V14.01,2013-09-14 16:58:00,
2013-09-14 13:03:00,56.7,30.7,29.71,South,172,0.0,0.0,37,0.00,,---,0.04,VWS V14.01,2013-09-14 17:03:00,
2013-09-14 13:08:00,56.8,30.9,29.71,South,172,0.0,0.0,37,0.00,,---,0.04,VWS V14.01,2013-09-14 17:08:00,
2013-09-14 13:13:00,57.4,30.7,29.71,WNW,296,2.7,3.1,36,0.00,,---,0.04,VWS V14.01,2013-09-14 17:13:00,
2013-09-14 13:18:00,57.6,30.8,29.71,WNW,296,0.0,0.0,36,0.00,,---,0.04,VWS V14.01,2013-09-14 17:18:00,
2013-09-14 13:23:00,57.6,30.8,29.71,WNW,300,0.0,0.0,36,0.00,,---,0.04,VWS V14.01,2013-09-14 17:23:00,
2013-09-14 13:28:00,57.6,30.8,29.71,WNW,301,0.0,0.0,36,0.00,,---,0.04,VWS V14.01,2013-09-14 17:28:00,
2013-09-14 13:33:00,57.4,30.0,29.71,South,177,0.0,0.0,35,0.00,,---,0.04,VWS V14.01,2013-09-14 17:33:00,
2013-09-14 13:38:00,57.6,30.1,29.71,NE,49,0.0,0.0,35,0.00,,---,0.04,VWS V14.01,2013-09-14 17:38:00,
2013-09-14 13:43:00,57.6,30.1,29.71,NE,49,0.0,0.0,35,0.00,,---,0.04,VWS V14.01,2013-09-14 17:43:00,
2013-09-14 13:48:00,57.7,30.3,29.71,SW,230,0.0,2.7,35,0.00,,---,0.04,VWS V14.01,2013-09-14 17:48:00,
2013-09-14 13:53:00,57.9,30.5,29.71,NW,308,0.0,0.0,35,0.00,,---,0.04,VWS V14.01,2013-09-14 17:53:00,
2013-09-14 13:58:00,57.9,30.5,29.71,WNW,297,0.0,3.1,35,0.00,,---,0.04,VWS V14.01,2013-09-14 17:58:00,
2013-09-14 14:03:00,58.5,30.9,29.71,NW,306,3.1,5.4,35,0.00,,---,0.04,VWS V14.01,2013-09-14 18:03:00,
2013-09-14 14:08:00,58.8,31.2,29.71,NW,306,0.0,0.0,35,0.00,,---,0.04,VWS V14.01,2013-09-14 18:08:00,
2013-09-14 14:13:00,59.4,31.7,29.71,WNW,287,0.0,0.0,35,0.00,,---,0.04,VWS V14.01,2013-09-14 18:13:00,
2013-09-14 14:18:00,59.4,31.7,29.68,South,186,0.0,0.0,35,0.00,,---,0.04,VWS V14.01,2013-09-14 18:18:00,
2013-09-14 14:23:00,59.2,31.6,29.68,SW,235,3.6,4.5,35,0.00,,---,0.04,VWS V14.01,2013-09-14 18:23:00,
2013-09-14 14:28:00,59.2,31.6,29.68,WNW,289,0.0,0.0,35,0.00,,---,0.04,VWS V14.01,2013-09-14 18:28:00,
2013-09-14 14:33:00,59.5,31.9,29.68,North,2,0.0,0.0,35,0.00,,---,0.04,VWS V14.01,2013-09-14 18:33:00,
2013-09-14 14:38:00,59.7,32.0,29.68,North,2,0.0,0.0,35,0.00,,---,0.04,VWS V14.01,2013-09-14 18:38:00,
2013-09-14 14:43:00,59.9,32.2,29.68,ENE,76,0.0,0.0,35,0.00,,---,0.04,VWS V14.01,2013-09-14 18:43:00,
2013-09-14 14:48:00,59.9,32.2,29.68,NW,318,0.0,0.0,35,0.00,,---,0.04,VWS V14.01,2013-09-14 18:48:00,
2013-09-14 14:53:00,59.7,32.0,29.68,WSW,247,0.0,0.0,35,0.00,,---,0.04,VWS V14.01,2013-09-14 18:53:00,
2013-09-14 14:58:00,59.5,31.9,29.68,SSE,163,0.0,2.7,35,0.00,,---,0.04,VWS V14.01,2013-09-14 18:58:00,
2013-09-14 15:03:00,59.4,31.7,29.68,SE,141,0.0,0.0,35,0.00,,---,0.04,VWS V14.01,2013-09-14 19:03:00,
2013-09-14 15:08:00,59.4,31.7,29.68,South,170,0.0,0.0,35,0.00,,---,0.04,VWS V14.01,2013-09-14 19:08:00,
2013-09-14 15:13:00,59.5,31.9,29.68,NW,309,0.0,0.0,35,0.00,,---,0.04,VWS V14.01,2013-09-14 19:13:00,
2013-09-14 15:18:00,59.7,32.0,29.68,ESE,110,0.0,2.2,35,0.00,,---,0.04,VWS V14.01,2013-09-14 19:18:00,
2013-09-14 15:23:00,60.1,32.4,29.68,ESE,102,0.0,0.0,35,0.00,,---,0.04,VWS V14.01,2013-09-14 19:23:00,
2013-09-14 15:28:00,60.3,32.5,29.68,East,100,0.0,0.0,35,0.00,,---,0.04,VWS V14.01,2013-09-14 19:28:00,
2013-09-14 15:33:00,60.3,32.5,29.68,WNW,298,0.0,0.0,35,0.00,,---,0.04,VWS V14.01,2013-09-14 19:33:00,
2013-09-14 15:38:00,60.3,32.5,29.68,WNW,298,0.0,0.0,35,0.00,,---,0.04,VWS V14.01,2013-09-14 19:38:00,
2013-09-14 15:43:00,60.3,32.5,29.68,South,191,2.2,2.2,35,0.00,,---,0.04,VWS V14.01,2013-09-14 19:43:00,
2013-09-14 15:48:00,60.3,32.5,29.68,WNW,290,0.0,0.0,35,0.00,,---,0.04,VWS V14.01,2013-09-14 19:48:00,
2013-09-14 15:53:00,60.3,32.5,29.68,WNW,290,0.0,0.0,35,0.00,,---,0.04,VWS V14.01,2013-09-14 19:53:00,
2013-09-14 15:58:00,60.6,32.8,29.68,WNW,290,0.0,0.0,35,0.00,,---,0.04,VWS V14.01,2013-09-14 19:58:00,
2013-09-14 16:03:00,61.0,32.4,29.68,SSW,209,0.0,0.0,34,0.00,,---,0.04,VWS V14.01,2013-09-14 20:03:00,
2013-09-14 16:08:00,61.0,32.4,29.68,South,178,0.0,0.0,34,0.00,,---,0.04,VWS V14.01,2013-09-14 20:08:00,
2013-09-14 16:13:00,61.2,32.6,29.68,WNW,303,0.0,0.0,34,0.00,,---,0.04,VWS V14.01,2013-09-14 20:13:00,
2013-09-14 16:18:00,61.0,32.4,29.68,NW,304,3.6,3.6,34,0.00,,---,0.04,VWS V14.01,2013-09-14 20:18:00,
2013-09-14 16:23:00,61.0,32.4,29.68,NW,309,2.7,2.7,34,0.00,,---,0.04,VWS V14.01,2013-09-14 20:23:00,
2013-09-14 16:28:00,61.0,32.4,29.68,ESE,117,0.0,0.0,34,0.00,,---,0.04,VWS V14.01,2013-09-14 20:28:00,
2013-09-14 16:33:00,61.0,32.4,29.68,ESE,117,0.0,0.0,34,0.00,,---,0.04,VWS V14.01,2013-09-14 20:33:00,
2013-09-14 16:38:00,61.0,32.4,29.68,South,172,0.0,0.0,34,0.00,,---,0.04,VWS V14.01,2013-09-14 20:38:00,
2013-09-14 16:43:00,61.0,32.4,29.68,SE,135,0.0,0.0,34,0.00,,---,0.04,VWS V14.01,2013-09-14 20:43:00,
2013-09-14 16:48:00,61.0,32.4,29.68,WNW,296,2.7,4.0,34,0.00,,---,0.04,VWS V14.01,2013-09-14 20:48:00,
2013-09-14 16:53:00,60.8,32.3,29.68,WNW,285,0.0,4.0,34,0.00,,---,0.04,VWS V14.01,2013-09-14 20:53:00,
2013-09-14 16:58:00,60.6,32.8,29.68,NNW,330,0.0,0.0,35,0.00,,---,0.04,VWS V14.01,2013-09-14 20:58:00,
2013-09-14 17:03:00,60.4,32.7,29.68,WNW,287,0.0,0.0,35,0.00,,---,0.04,VWS V14.01,2013-09-14 21:03:00,
2013-09-14 17:08:00,60.4,32.7,29.68,SE,124,0.0,0.0,35,0.00,,---,0.04,VWS V14.01,2013-09-14 21:08:00,
2013-09-14 17:13:00,60.4,32.7,29.68,NNW,332,3.1,3.6,35,0.00,,---,0.04,VWS V14.01,2013-09-14 21:13:00,
2013-09-14 17:18:00,60.3,32.5,29.68,SSE,163,0.0,0.0,35,0.00,,---,0.04,VWS V14.01,2013-09-14 21:18:00,
2013-09-14 17:23:00,60.1,32.4,29.68,NW,311,0.0,0.0,35,0.00,,---,0.04,VWS V14.01,2013-09-14 21:23:00,
2013-09-14 17:28:00,60.1,32.4,29.68,SW,218,0.0,0.0,35,0.00,,---,0.04,VWS V14.01,2013-09-14 21:28:00,
2013-09-14 17:33:00,59.7,32.0,29.71,SW,218,2.7,3.6,35,0.00,,---,0.04,VWS V14.01,2013-09-14 21:33:00,
2013-09-14 17:38:00,59.5,31.9,29.71,WNW,302,0.0,0.0,35,0.00,,---,0.04,VWS V14.01,2013-09-14 21:38:00,
2013-09-14 17:43:00,59.4,31.7,29.71,WNW,289,0.0,0.0,35,0.00,,---,0.04,VWS V14.01,2013-09-14 21:43:00,
2013-09-14 17:48:00,59.2,31.6,29.71,WNW,289,0.0,0.0,35,0.00,,---,0.04,VWS V14.01,2013-09-14 21:48:00,
2013-09-14 17:53:00,59.0,31.4,29.71,North,1,0.0,0.0,35,0.00,,---,0.04,VWS V14.01,2013-09-14 21:53:00,
2013-09-14 17:58:00,58.8,31.2,29.71,NE,52,0.0,0.0,35,0.00,,---,0.04,VWS V14.01,2013-09-14 21:58:00,
2013-09-14 18:03:00,58.5,30.9,29.71,WNW,302,0.0,0.0,35,0.00,,---,0.04,VWS V14.01,2013-09-14 22:03:00,
2013-09-14 18:08:00,58.3,30.8,29.71,West,269,0.0,0.0,35,0.00,,---,0.04,VWS V14.01,2013-09-14 22:08:00,
2013-09-14 18:13:00,57.9,30.5,29.71,WNW,291,0.0,0.0,35,0.00,,---,0.04,VWS V14.01,2013-09-14 22:13:00,
2013-09-14 18:18:00,57.6,30.1,29.71,WNW,290,0.0,0.0,35,0.00,,---,0.04,VWS V14.01,2013-09-14 22:18:00,
2013-09-14 18:23:00,57.4,30.0,29.71,WNW,290,0.0,0.0,35,0.00,,---,0.04,VWS V14.01,2013-09-14 22:23:00,
2013-09-14 18:28:00,57.0,29.7,29.71,WNW,290,0.0,0.0,35,0.00,,---,0.04,VWS V14.01,2013-09-14 22:28:00,
2013-09-14 18:33:00,56.7,29.3,29.71,WNW,290,0.0,0.0,35,0.00,,---,0.04,VWS V14.01,2013-09-14 22:33:00,
2013-09-14 18:38:00,56.3,29.0,29.71,WNW,290,0.0,0.0,35,0.00,,---,0.04,VWS V14.01,2013-09-14 22:38:00,
2013-09-14 18:43:00,55.9,28.7,29.71,WNW,290,0.0,0.0,35,0.00,,---,0.04,VWS V14.01,2013-09-14 22:43:00,
2013-09-14 18:48:00,55.6,28.4,29.71,WNW,290,0.0,0.0,35,0.00,,---,0.04,VWS V14.01,2013-09-14 22:48:00,
2013-09-14 18:49:00,55.4,28.2,29.71,WNW,290,0.0,0.0,35,0.00,,---,0.04,VWS V14.01,2013-09-14 22:49:00,
2013-09-14 18:54:00,55.0,28.6,29.71,WNW,290,0.0,0.0,36,0.00,,---,0.04,VWS V14.01,2013-09-14 22:54:00,
2013-09-14 18:59:00,54.5,28.1,29.71,WNW,290,0.0,0.0,36,0.00,,---,0.04,VWS V14.01,2013-09-14 22:59:00,
2013-09-14 19:04:00,54.3,28.0,29.71,WNW,290,0.0,0.0,36,0.00,,---,0.04,VWS V14.01,2013-09-14 23:04:00,
2013-09-14 19:09:00,54.0,27.6,29.71,WNW,290,0.0,0.0,36,0.00,,---,0.04,VWS V14.01,2013-09-14 23:09:00,
2013-09-14 19:14:00,53.6,27.3,29.71,WNW,290,0.0,0.0,36,0.00,,---,0.04,VWS V14.01,2013-09-14 23:14:00,
2013-09-14 19:19:00,53.4,27.1,29.71,WNW,290,0.0,0.0,36,0.00,,---,0.04,VWS V14.01,2013-09-14 23:19:00,
2013-09-14 19:24:00,53.1,26.8,29.71,WNW,290,0.0,0.0,36,0.00,,---,0.04,VWS V14.01,2013-09-14 23:24:00,
2013-09-14 19:29:00,52.9,26.7,29.71,WNW,290,0.0,0.0,36,0.00,,---,0.04,VWS V14.01,2013-09-14 23:29:00,
2013-09-14 19:34:00,52.7,26.5,29.71,WNW,290,0.0,0.0,36,0.00,,---,0.04,VWS V14.01,2013-09-14 23:34:00,
2013-09-14 19:39:00,52.3,26.2,29.71,WNW,290,0.0,0.0,36,0.00,,---,0.04,VWS V14.01,2013-09-14 23:39:00,
2013-09-14 19:44:00,52.0,25.9,29.71,WNW,290,0.0,0.0,36,0.00,,---,0.04,VWS V14.01,2013-09-14 23:44:00,
2013-09-14 19:49:00,51.6,26.2,29.71,WNW,290,0.0,0.0,37,0.00,,---,0.04,VWS V14.01,2013-09-14 23:49:00,
2013-09-14 19:54:00,51.4,26.0,29.71,WNW,290,0.0,0.0,37,0.00,,---,0.04,VWS V14.01,2013-09-14 23:54:00,
2013-09-14 19:59:00,51.1,25.7,29.71,WNW,290,0.0,0.0,37,0.00,,---,0.04,VWS V14.01,2013-09-14 23:59:00,
2013-09-14 20:04:00,50.9,25.6,29.71,WNW,290,0.0,0.0,37,0.00,,---,0.04,VWS V14.01,2013-09-15 00:04:00,
2013-09-14 20:09:00,50.7,25.4,29.71,WNW,290,0.0,0.0,37,0.00,,---,0.04,VWS V14.01,2013-09-15 00:09:00,
2013-09-14 20:14:00,50.5,25.2,29.71,WNW,290,0.0,0.0,37,0.00,,---,0.04,VWS V14.01,2013-09-15 00:14:00,
2013-09-14 20:19:00,50.2,24.9,29.71,WNW,290,0.0,0.0,37,0.00,,---,0.04,VWS V14.01,2013-09-15 00:19:00,
2013-09-14 20:24:00,50.2,24.9,29.71,WNW,290,0.0,0.0,37,0.00,,---,0.04,VWS V14.01,2013-09-15 00:24:00,
2013-09-14 20:29:00,50.0,24.8,29.71,WNW,290,0.0,0.0,37,0.00,,---,0.04,VWS V14.01,2013-09-15 00:29:00,
2013-09-14 20:34:00,49.8,24.6,29.71,WNW,290,0.0,0.0,37,0.00,,---,0.04,VWS V14.01,2013-09-15 00:34:00,
2013-09-14 20:39:00,49.6,24.5,29.71,WNW,290,0.0,0.0,37,0.00,,---,0.04,VWS V14.01,2013-09-15 00:39:00,
2013-09-14 20:44:00,49.5,24.3,29.71,WNW,290,0.0,0.0,37,0.00,,---,0.04,VWS V14.01,2013-09-15 00:44:00,
2013-09-14 20:49:00,49.3,24.1,29.71,WNW,290,0.0,0.0,37,0.00,,---,0.04,VWS V14.01,2013-09-15 00:49:00,
2013-09-14 20:54:00,49.3,24.1,29.71,WNW,290,0.0,0.0,37,0.00,,---,0.04,VWS V14.01,2013-09-15 00:54:00,
2013-09-14 20:59:00,49.3,24.1,29.71,WNW,290,0.0,0.0,37,0.00,,---,0.04,VWS V14.01,2013-09-15 00:59:00,
2013-09-14 21:04:00,49.1,24.0,29.71,WNW,290,0.0,0.0,37,0.00,,---,0.04,VWS V14.01,2013-09-15 01:04:00,
2013-09-14 21:10:00,49.1,24.0,29.71,WNW,290,0.0,0.0,37,0.00,,---,0.04,VWS V14.01,2013-09-15 01:10:00,
2013-09-14 21:15:00,48.9,23.8,29.71,WNW,290,0.0,0.0,37,0.00,,---,0.04,VWS V14.01,2013-09-15 01:15:00,
2013-09-14 21:20:00,48.9,23.8,29.71,WNW,290,0.0,0.0,37,0.00,,---,0.04,VWS V14.01,2013-09-15 01:20:00,
2013-09-14 21:25:00,48.9,23.8,29.71,WNW,290,0.0,0.0,37,0.00,,---,0.04,VWS V14.01,2013-09-15 01:25:00,
2013-09-14 21:30:00,48.9,23.8,29.71,WNW,290,0.0,0.0,37,0.00,,---,0.04,VWS V14.01,2013-09-15 01:30:00,
2013-09-14 21:35:00,48.9,23.8,29.74,WNW,290,0.0,0.0,37,0.00,,---,0.04,VWS V14.01,2013-09-15 01:35:00,
2013-09-14 21:40:00,48.9,23.8,29.74,WNW,290,0.0,0.0,37,0.00,,---,0.04,VWS V14.01,2013-09-15 01:40:00,
2013-09-14 21:45:00,48.9,23.8,29.74,WNW,290,0.0,0.0,37,0.00,,---,0.04,VWS V14.01,2013-09-15 01:45:00,
2013-09-14 21:50:00,48.9,23.8,29.71,WNW,290,0.0,0.0,37,0.00,,---,0.04,VWS V14.01,2013-09-15 01:50:00,
2013-09-14 21:55:00,48.9,23.8,29.71,WNW,290,0.0,0.0,37,0.00,,---,0.04,VWS V14.01,2013-09-15 01:55:00,
2013-09-14 22:00:00,49.1,24.0,29.71,WNW,290,0.0,0.0,37,0.00,,---,0.04,VWS V14.01,2013-09-15 02:00:00,
2013-09-14 22:05:00,49.3,24.1,29.71,WNW,290,0.0,0.0,37,0.00,,---,0.04,VWS V14.01,2013-09-15 02:05:00,
2013-09-14 22:10:00,49.6,24.5,29.71,WNW,290,0.0,0.0,37,0.00,,---,0.04,VWS V14.01,2013-09-15 02:10:00,
2013-09-14 22:15:00,49.8,24.6,29.71,ENE,68,0.0,0.0,37,0.00,,---,0.04,VWS V14.01,2013-09-15 02:15:00,
2013-09-14 22:20:00,50.2,24.9,29.71,ENE,68,0.0,0.0,37,0.00,,---,0.04,VWS V14.01,2013-09-15 02:20:00,
2013-09-14 22:25:00,50.2,24.9,29.71,ENE,69,0.0,0.0,37,0.00,,---,0.04,VWS V14.01,2013-09-15 02:25:00,
2013-09-14 22:30:00,50.4,25.1,29.71,ENE,69,0.0,0.0,37,0.00,,---,0.04,VWS V14.01,2013-09-15 02:30:00,
2013-09-14 22:35:00,50.4,25.1,29.71,ENE,69,0.0,0.0,37,0.00,,---,0.04,VWS V14.01,2013-09-15 02:35:00,
2013-09-14 22:40:00,50.5,25.2,29.71,ENE,68,0.0,0.0,37,0.00,,---,0.04,VWS V14.01,2013-09-15 02:40:00,
2013-09-14 22:45:00,50.7,25.4,29.71,ENE,71,0.0,0.0,37,0.00,,---,0.04,VWS V14.01,2013-09-15 02:45:00,
2013-09-14 22:50:00,50.9,25.6,29.71,ENE,71,0.0,0.0,37,0.00,,---,0.04,VWS V14.01,2013-09-15 02:50:00,
2013-09-14 22:55:00,51.3,25.9,29.71,NW,305,0.0,0.0,37,0.00,,---,0.04,VWS V14.01,2013-09-15 02:55:00,
2013-09-14 23:00:00,51.3,25.9,29.71,NW,305,0.0,0.0,37,0.00,,---,0.04,VWS V14.01,2013-09-15 03:00:00,
2013-09-14 23:05:00,51.3,25.9,29.71,NW,305,0.0,0.0,37,0.00,,---,0.04,VWS V14.01,2013-09-15 03:05:00,
2013-09-14 23:10:00,51.3,25.9,29.71,NW,305,0.0,0.0,37,0.00,,---,0.04,VWS V14.01,2013-09-15 03:10:00,
2013-09-14 23:15:00,51.3,25.9,29.71,North,9,0.0,0.0,37,0.00,,---,0.04,VWS V14.01,2013-09-15 03:15:00,
2013-09-14 23:20:00,51.4,26.0,29.71,NNW,334,0.0,0.0,37,0.00,,---,0.04,VWS V14.01,2013-09-15 03:20:00,
2013-09-14 23:25:00,51.4,26.0,29.71,ENE,69,0.0,0.0,37,0.00,,---,0.04,VWS V14.01,2013-09-15 03:25:00,
2013-09-14 23:30:00,51.3,25.9,29.71,NNE,13,0.0,0.0,37,0.00,,---,0.04,VWS V14.01,2013-09-15 03:30:00,
2013-09-14 23:35:00,51.3,25.9,29.71,NNW,342,2.2,2.2,37,0.00,,---,0.04,VWS V14.01,2013-09-15 03:35:00,
2013-09-14 23:40:00,51.1,25.7,29.71,NNE,31,0.0,0.0,37,0.00,,---,0.04,VWS V14.01,2013-09-15 03:40:00,
2013-09-14 23:45:00,50.9,25.6,29.71,NNE,20,0.0,0.0,37,0.00,,---,0.04,VWS V14.01,2013-09-15 03:45:00,
2013-09-14 23:50:00,50.7,25.4,29.68,NNW,331,0.0,0.0,37,0.00,,---,0.04,VWS V14.01,2013-09-15 03:50:00,
2013-09-14 23:55:00,50.7,25.4,29.68,WNW,288,0.0,0.0,37,0.00,,---,0.04,VWS V14.01,2013-09-15 03:55:00,